首页
METAR-TAF:

METAR-TAF

机场 :

查尔斯市, 艾奥瓦州, 美国

纬度: 43-04N, 经度: 092-37W, 海拔: 343米

当前天气观测

该预报发布于20分钟前的15:15 UTC
静风
温度 22°C
湿度 60%
气压 1018 hPa
能見度: 16.1公里
天空无云

METAR: KCCY 111515Z AUTO 00000KT 10SM CLR 22/14 A3005 RMK AO2

时间: 10:35 (15:35 UTC)


TAF: 丢失

超过4000个机场的气象观测和天气预报(METAR&TAF报告)。

可查询的气象台以黄色和红色小点在地图上表示。

将鼠标移到小点上方,可查看气象台名称。

然后点击查看天气观测和预报。

如需切换地图:点击带黑十字的绿色按钮放大地图;点击带横线的绿色按钮缩小地图;或者点击绿色箭头查看邻近地区的地图。


METAR-TAF: